sensor_id;sensor_type;location;lat;lon;timestamp;temperature;humidity
10384;DHT22;5238;43.508;4.980;2023-12-07T00:01:39;6.00;91.30
10384;DHT22;5238;43.508;4.980;2023-12-07T00:04:06;6.00;91.30
10384;DHT22;5238;43.508;4.980;2023-12-07T00:06:33;6.00;91.30
10384;DHT22;5238;43.508;4.980;2023-12-07T00:09:00;6.00;91.30
10384;DHT22;5238;43.508;4.980;2023-12-07T00:11:28;5.90;91.30
10384;DHT22;5238;43.508;4.980;2023-12-07T00:13:56;5.90;91.30
10384;DHT22;5238;43.508;4.980;2023-12-07T00:16:23;5.90;91.30
10384;DHT22;5238;43.508;4.980;2023-12-07T00:18:50;5.90;91.30
10384;DHT22;5238;43.508;4.980;2023-12-07T00:21:18;5.90;91.30
10384;DHT22;5238;43.508;4.980;2023-12-07T00:23:45;5.90;91.30
10384;DHT22;5238;43.508;4.980;2023-12-07T00:26:12;5.90;91.30
10384;DHT22;5238;43.508;4.980;2023-12-07T00:28:39;5.90;91.30
10384;DHT22;5238;43.508;4.980;2023-12-07T00:31:07;5.90;91.30
10384;DHT22;5238;43.508;4.980;2023-12-07T00:33:34;5.90;91.30
10384;DHT22;5238;43.508;4.980;2023-12-07T00:36:01;5.90;91.30
10384;DHT22;5238;43.508;4.980;2023-12-07T00:38:29;5.90;91.30
10384;DHT22;5238;43.508;4.980;2023-12-07T00:40:58;5.90;91.30
10384;DHT22;5238;43.508;4.980;2023-12-07T00:43:24;5.90;91.30
10384;DHT22;5238;43.508;4.980;2023-12-07T00:45:52;5.90;91.30
10384;DHT22;5238;43.508;4.980;2023-12-07T00:48:20;5.80;91.30
10384;DHT22;5238;43.508;4.980;2023-12-07T00:50:47;5.90;91.30
10384;DHT22;5238;43.508;4.980;2023-12-07T00:53:14;5.90;91.30
10384;DHT22;5238;43.508;4.980;2023-12-07T00:55:41;5.80;91.30
10384;DHT22;5238;43.508;4.980;2023-12-07T00:58:08;5.80;91.30
10384;DHT22;5238;43.508;4.980;2023-12-07T01:00:35;5.80;91.30
10384;DHT22;5238;43.508;4.980;2023-12-07T01:03:02;5.80;91.30
10384;DHT22;5238;43.508;4.980;2023-12-07T01:05:30;5.80;91.30
10384;DHT22;5238;43.508;4.980;2023-12-07T01:07:57;5.80;91.30
10384;DHT22;5238;43.508;4.980;2023-12-07T01:10:25;5.80;91.30
10384;DHT22;5238;43.508;4.980;2023-12-07T01:12:52;5.80;91.30
10384;DHT22;5238;43.508;4.980;2023-12-07T01:15:19;5.80;91.30
10384;DHT22;5238;43.508;4.980;2023-12-07T01:17:46;5.80;91.30
10384;DHT22;5238;43.508;4.980;2023-12-07T01:20:13;5.70;91.30
10384;DHT22;5238;43.508;4.980;2023-12-07T01:22:41;5.70;91.30
10384;DHT22;5238;43.508;4.980;2023-12-07T01:25:08;5.70;91.30
10384;DHT22;5238;43.508;4.980;2023-12-07T01:27:36;5.70;91.30
10384;DHT22;5238;43.508;4.980;2023-12-07T01:30:03;5.70;91.30
10384;DHT22;5238;43.508;4.980;2023-12-07T01:32:30;5.70;91.30
10384;DHT22;5238;43.508;4.980;2023-12-07T01:34:57;5.70;91.30
10384;DHT22;5238;43.508;4.980;2023-12-07T01:37:24;5.80;91.30
10384;DHT22;5238;43.508;4.980;2023-12-07T01:39:54;5.80;91.30
10384;DHT22;5238;43.508;4.980;2023-12-07T01:42:21;5.80;91.30
10384;DHT22;5238;43.508;4.980;2023-12-07T01:44:48;5.80;91.30
10384;DHT22;5238;43.508;4.980;2023-12-07T01:47:15;5.80;91.30
10384;DHT22;5238;43.508;4.980;2023-12-07T01:49:42;5.80;91.30
10384;DHT22;5238;43.508;4.980;2023-12-07T01:52:10;5.80;91.30
10384;DHT22;5238;43.508;4.980;2023-12-07T01:54:38;5.80;91.30
10384;DHT22;5238;43.508;4.980;2023-12-07T01:57:07;5.70;91.30
10384;DHT22;5238;43.508;4.980;2023-12-07T01:59:34;5.70;91.30
10384;DHT22;5238;43.508;4.980;2023-12-07T02:02:02;5.70;91.30
10384;DHT22;5238;43.508;4.980;2023-12-07T02:04:29;5.60;91.30
10384;DHT22;5238;43.508;4.980;2023-12-07T02:06:57;5.60;91.30
10384;DHT22;5238;43.508;4.980;2023-12-07T02:09:25;5.60;91.30
10384;DHT22;5238;43.508;4.980;2023-12-07T02:11:52;5.50;91.30
10384;DHT22;5238;43.508;4.980;2023-12-07T02:14:21;5.50;91.30
10384;DHT22;5238;43.508;4.980;2023-12-07T02:16:51;5.50;91.30
10384;DHT22;5238;43.508;4.980;2023-12-07T02:19:39;5.40;91.30
10384;DHT22;5238;43.508;4.980;2023-12-07T02:22:14;5.40;91.30
10384;DHT22;5238;43.508;4.980;2023-12-07T02:24:48;5.30;91.30
10384;DHT22;5238;43.508;4.980;2023-12-07T02:27:35;5.30;91.30
10384;DHT22;5238;43.508;4.980;2023-12-07T02:30:02;5.30;91.30
10384;DHT22;5238;43.508;4.980;2023-12-07T02:32:29;5.30;91.30
10384;DHT22;5238;43.508;4.980;2023-12-07T02:34:56;5.20;91.30
10384;DHT22;5238;43.508;4.980;2023-12-07T02:37:25;5.20;91.30
10384;DHT22;5238;43.508;4.980;2023-12-07T02:39:55;5.20;91.30
10384;DHT22;5238;43.508;4.980;2023-12-07T02:42:24;5.10;91.30
10384;DHT22;5238;43.508;4.980;2023-12-07T02:44:53;5.10;91.30
10384;DHT22;5238;43.508;4.980;2023-12-07T02:47:21;5.10;91.30
10384;DHT22;5238;43.508;4.980;2023-12-07T02:49:48;5.10;91.30
10384;DHT22;5238;43.508;4.980;2023-12-07T02:52:15;5.10;91.30
10384;DHT22;5238;43.508;4.980;2023-12-07T02:54:42;5.10;91.30
10384;DHT22;5238;43.508;4.980;2023-12-07T02:57:09;5.10;91.30
10384;DHT22;5238;43.508;4.980;2023-12-07T02:59:36;5.00;91.30
10384;DHT22;5238;43.508;4.980;2023-12-07T03:02:04;5.00;91.30
10384;DHT22;5238;43.508;4.980;2023-12-07T03:04:31;5.00;91.30
10384;DHT22;5238;43.508;4.980;2023-12-07T03:06:58;5.00;91.30
10384;DHT22;5238;43.508;4.980;2023-12-07T03:09:25;5.00;91.30
10384;DHT22;5238;43.508;4.980;2023-12-07T03:11:52;5.00;91.30
10384;DHT22;5238;43.508;4.980;2023-12-07T03:14:19;5.00;91.30
10384;DHT22;5238;43.508;4.980;2023-12-07T03:16:46;5.00;91.30
10384;DHT22;5238;43.508;4.980;2023-12-07T03:19:14;4.90;91.30
10384;DHT22;5238;43.508;4.980;2023-12-07T03:21:42;4.90;91.30
10384;DHT22;5238;43.508;4.980;2023-12-07T03:24:09;4.90;91.30
10384;DHT22;5238;43.508;4.980;2023-12-07T03:26:37;4.90;91.30
10384;DHT22;5238;43.508;4.980;2023-12-07T03:29:04;4.80;91.30
10384;DHT22;5238;43.508;4.980;2023-12-07T03:31:31;4.80;91.30
10384;DHT22;5238;43.508;4.980;2023-12-07T03:33:58;4.70;91.30
10384;DHT22;5238;43.508;4.980;2023-12-07T03:36:28;4.70;91.30
10384;DHT22;5238;43.508;4.980;2023-12-07T03:38:55;4.70;91.30
10384;DHT22;5238;43.508;4.980;2023-12-07T03:41:22;4.60;91.30
10384;DHT22;5238;43.508;4.980;2023-12-07T03:43:48;4.60;91.30
10384;DHT22;5238;43.508;4.980;2023-12-07T03:46:16;4.50;91.30
10384;DHT22;5238;43.508;4.980;2023-12-07T03:48:43;4.50;91.30
10384;DHT22;5238;43.508;4.980;2023-12-07T03:51:13;4.50;91.30
10384;DHT22;5238;43.508;4.980;2023-12-07T03:53:42;4.40;91.30
10384;DHT22;5238;43.508;4.980;2023-12-07T03:56:09;4.40;91.30
10384;DHT22;5238;43.508;4.980;2023-12-07T03:58:36;4.40;91.30
10384;DHT22;5238;43.508;4.980;2023-12-07T04:01:04;4.30;91.30
10384;DHT22;5238;43.508;4.980;2023-12-07T04:03:31;4.30;91.30
10384;DHT22;5238;43.508;4.980;2023-12-07T04:05:58;4.20;91.30
10384;DHT22;5238;43.508;4.980;2023-12-07T04:08:24;4.20;91.30
10384;DHT22;5238;43.508;4.980;2023-12-07T04:10:53;4.20;91.30
10384;DHT22;5238;43.508;4.980;2023-12-07T04:13:20;4.10;91.30
10384;DHT22;5238;43.508;4.980;2023-12-07T04:15:47;4.10;91.30
10384;DHT22;5238;43.508;4.980;2023-12-07T04:18:14;4.10;91.30
10384;DHT22;5238;43.508;4.980;2023-12-07T04:20:41;4.10;91.30
10384;DHT22;5238;43.508;4.980;2023-12-07T04:23:07;4.10;91.30
10384;DHT22;5238;43.508;4.980;2023-12-07T04:25:34;4.10;91.30
10384;DHT22;5238;43.508;4.980;2023-12-07T04:28:03;4.10;91.30
10384;DHT22;5238;43.508;4.980;2023-12-07T04:30:30;4.10;91.30
10384;DHT22;5238;43.508;4.980;2023-12-07T04:32:57;4.10;91.30
10384;DHT22;5238;43.508;4.980;2023-12-07T04:35:24;4.10;91.30
10384;DHT22;5238;43.508;4.980;2023-12-07T04:37:51;4.10;91.30
10384;DHT22;5238;43.508;4.980;2023-12-07T04:40:18;4.10;91.30
10384;DHT22;5238;43.508;4.980;2023-12-07T04:42:45;4.20;91.30
10384;DHT22;5238;43.508;4.980;2023-12-07T04:45:13;4.20;91.30
10384;DHT22;5238;43.508;4.980;2023-12-07T04:47:40;4.20;91.30
10384;DHT22;5238;43.508;4.980;2023-12-07T04:50:08;4.20;91.30
10384;DHT22;5238;43.508;4.980;2023-12-07T04:52:35;4.30;91.30
10384;DHT22;5238;43.508;4.980;2023-12-07T04:55:03;4.30;91.30
10384;DHT22;5238;43.508;4.980;2023-12-07T04:57:31;4.30;91.30
10384;DHT22;5238;43.508;4.980;2023-12-07T04:59:58;4.30;91.30
10384;DHT22;5238;43.508;4.980;2023-12-07T05:02:27;4.40;91.30
10384;DHT22;5238;43.508;4.980;2023-12-07T05:04:54;4.40;91.30
10384;DHT22;5238;43.508;4.980;2023-12-07T05:07:21;4.40;91.30
10384;DHT22;5238;43.508;4.980;2023-12-07T05:09:48;4.50;91.30
10384;DHT22;5238;43.508;4.980;2023-12-07T05:12:16;4.50;91.30
10384;DHT22;5238;43.508;4.980;2023-12-07T05:14:43;4.50;91.30
10384;DHT22;5238;43.508;4.980;2023-12-07T05:17:10;4.50;91.30
10384;DHT22;5238;43.508;4.980;2023-12-07T05:19:38;4.50;91.30
10384;DHT22;5238;43.508;4.980;2023-12-07T05:22:05;4.50;91.30
10384;DHT22;5238;43.508;4.980;2023-12-07T05:24:32;4.40;91.30
10384;DHT22;5238;43.508;4.980;2023-12-07T05:27:00;4.40;91.30
10384;DHT22;5238;43.508;4.980;2023-12-07T05:29:29;4.30;91.30
10384;DHT22;5238;43.508;4.980;2023-12-07T05:31:56;4.30;91.30
10384;DHT22;5238;43.508;4.980;2023-12-07T05:34:23;4.30;91.30
10384;DHT22;5238;43.508;4.980;2023-12-07T05:36:51;4.30;91.30
10384;DHT22;5238;43.508;4.980;2023-12-07T05:39:17;4.20;91.30
10384;DHT22;5238;43.508;4.980;2023-12-07T05:41:44;4.20;91.30
10384;DHT22;5238;43.508;4.980;2023-12-07T05:44:12;4.20;91.30
10384;DHT22;5238;43.508;4.980;2023-12-07T05:46:39;4.10;91.30
10384;DHT22;5238;43.508;4.980;2023-12-07T05:49:09;4.10;91.30
10384;DHT22;5238;43.508;4.980;2023-12-07T05:51:36;4.10;91.30
10384;DHT22;5238;43.508;4.980;2023-12-07T05:54:05;4.00;91.30
10384;DHT22;5238;43.508;4.980;2023-12-07T05:56:32;4.00;91.30
10384;DHT22;5238;43.508;4.980;2023-12-07T05:58:59;4.00;91.30
10384;DHT22;5238;43.508;4.980;2023-12-07T06:01:26;4.00;91.30
10384;DHT22;5238;43.508;4.980;2023-12-07T06:03:53;3.90;91.30
10384;DHT22;5238;43.508;4.980;2023-12-07T06:06:20;3.90;91.30
10384;DHT22;5238;43.508;4.980;2023-12-07T06:08:47;3.90;91.30
10384;DHT22;5238;43.508;4.980;2023-12-07T06:11:16;3.90;91.30
10384;DHT22;5238;43.508;4.980;2023-12-07T06:13:43;3.90;91.30
10384;DHT22;5238;43.508;4.980;2023-12-07T06:16:12;3.90;91.30
10384;DHT22;5238;43.508;4.980;2023-12-07T06:18:40;3.90;91.30
10384;DHT22;5238;43.508;4.980;2023-12-07T06:21:07;3.90;91.30
10384;DHT22;5238;43.508;4.980;2023-12-07T06:23:34;3.90;91.30
10384;DHT22;5238;43.508;4.980;2023-12-07T06:26:01;3.90;91.30
10384;DHT22;5238;43.508;4.980;2023-12-07T06:28:31;3.80;91.30
10384;DHT22;5238;43.508;4.980;2023-12-07T06:31:04;3.80;91.30
10384;DHT22;5238;43.508;4.980;2023-12-07T06:33:31;3.80;91.30
10384;DHT22;5238;43.508;4.980;2023-12-07T06:35:58;3.80;91.30
10384;DHT22;5238;43.508;4.980;2023-12-07T06:38:25;3.80;91.30
10384;DHT22;5238;43.508;4.980;2023-12-07T06:40:52;3.70;91.30
10384;DHT22;5238;43.508;4.980;2023-12-07T06:43:19;3.70;91.30
10384;DHT22;5238;43.508;4.980;2023-12-07T06:45:47;3.70;91.30
10384;DHT22;5238;43.508;4.980;2023-12-07T06:48:14;3.70;91.30
10384;DHT22;5238;43.508;4.980;2023-12-07T06:50:41;3.60;91.30
10384;DHT22;5238;43.508;4.980;2023-12-07T06:53:08;3.60;91.30
10384;DHT22;5238;43.508;4.980;2023-12-07T06:55:35;3.60;91.30
10384;DHT22;5238;43.508;4.980;2023-12-07T06:58:02;3.60;91.30
10384;DHT22;5238;43.508;4.980;2023-12-07T07:00:29;3.50;91.30
10384;DHT22;5238;43.508;4.980;2023-12-07T07:02:57;3.50;91.30
10384;DHT22;5238;43.508;4.980;2023-12-07T07:05:24;3.50;91.30
10384;DHT22;5238;43.508;4.980;2023-12-07T07:07:51;3.40;91.30
10384;DHT22;5238;43.508;4.980;2023-12-07T07:10:18;3.40;91.30
10384;DHT22;5238;43.508;4.980;2023-12-07T07:12:45;3.50;91.30
10384;DHT22;5238;43.508;4.980;2023-12-07T07:15:12;3.50;91.30
10384;DHT22;5238;43.508;4.980;2023-12-07T07:17:39;3.50;91.30
10384;DHT22;5238;43.508;4.980;2023-12-07T07:20:08;3.50;91.30
10384;DHT22;5238;43.508;4.980;2023-12-07T07:22:35;3.50;91.30
10384;DHT22;5238;43.508;4.980;2023-12-07T07:25:02;3.50;91.30
10384;DHT22;5238;43.508;4.980;2023-12-07T07:27:30;3.50;91.30
10384;DHT22;5238;43.508;4.980;2023-12-07T07:29:57;3.60;91.30
10384;DHT22;5238;43.508;4.980;2023-12-07T07:32:24;3.60;91.30
10384;DHT22;5238;43.508;4.980;2023-12-07T07:34:51;3.70;91.30
10384;DHT22;5238;43.508;4.980;2023-12-07T07:37:19;3.80;91.30
10384;DHT22;5238;43.508;4.980;2023-12-07T07:39:46;3.90;91.30
10384;DHT22;5238;43.508;4.980;2023-12-07T07:42:13;4.00;91.30
10384;DHT22;5238;43.508;4.980;2023-12-07T07:44:40;4.20;91.30
10384;DHT22;5238;43.508;4.980;2023-12-07T07:47:07;4.30;91.30
10384;DHT22;5238;43.508;4.980;2023-12-07T07:49:34;4.40;91.30
10384;DHT22;5238;43.508;4.980;2023-12-07T07:52:01;4.60;91.30
10384;DHT22;5238;43.508;4.980;2023-12-07T07:54:29;4.70;91.30
10384;DHT22;5238;43.508;4.980;2023-12-07T07:56:56;4.90;91.30
10384;DHT22;5238;43.508;4.980;2023-12-07T07:59:23;5.10;91.30
10384;DHT22;5238;43.508;4.980;2023-12-07T08:01:50;5.20;91.30
10384;DHT22;5238;43.508;4.980;2023-12-07T08:04:17;5.30;91.30
10384;DHT22;5238;43.508;4.980;2023-12-07T08:06:44;5.50;91.30
10384;DHT22;5238;43.508;4.980;2023-12-07T08:09:11;5.50;91.30
10384;DHT22;5238;43.508;4.980;2023-12-07T08:11:39;5.70;91.30
10384;DHT22;5238;43.508;4.980;2023-12-07T08:14:06;5.80;91.30
10384;DHT22;5238;43.508;4.980;2023-12-07T08:16:33;5.90;91.30
10384;DHT22;5238;43.508;4.980;2023-12-07T08:19:00;6.00;91.30
10384;DHT22;5238;43.508;4.980;2023-12-07T08:21:27;6.20;91.30
10384;DHT22;5238;43.508;4.980;2023-12-07T08:23:55;6.30;91.30
10384;DHT22;5238;43.508;4.980;2023-12-07T08:26:22;6.50;91.30
10384;DHT22;5238;43.508;4.980;2023-12-07T08:28:50;6.60;91.30
10384;DHT22;5238;43.508;4.980;2023-12-07T08:31:19;6.70;91.30
10384;DHT22;5238;43.508;4.980;2023-12-07T08:33:48;6.90;91.30
10384;DHT22;5238;43.508;4.980;2023-12-07T08:36:15;6.90;91.30
10384;DHT22;5238;43.508;4.980;2023-12-07T08:38:42;7.00;91.30
10384;DHT22;5238;43.508;4.980;2023-12-07T08:41:09;7.10;91.30
10384;DHT22;5238;43.508;4.980;2023-12-07T08:43:36;7.10;91.30
10384;DHT22;5238;43.508;4.980;2023-12-07T08:46:05;7.20;91.30
10384;DHT22;5238;43.508;4.980;2023-12-07T08:48:32;7.30;91.30
10384;DHT22;5238;43.508;4.980;2023-12-07T08:50:59;7.40;91.30
10384;DHT22;5238;43.508;4.980;2023-12-07T08:53:27;7.50;91.30
10384;DHT22;5238;43.508;4.980;2023-12-07T08:55:54;7.60;91.30
10384;DHT22;5238;43.508;4.980;2023-12-07T08:58:21;7.60;91.30
10384;DHT22;5238;43.508;4.980;2023-12-07T09:00:48;7.70;91.30
10384;DHT22;5238;43.508;4.980;2023-12-07T09:03:17;7.80;91.30
10384;DHT22;5238;43.508;4.980;2023-12-07T09:05:44;7.80;91.30
10384;DHT22;5238;43.508;4.980;2023-12-07T09:08:11;7.90;91.30
10384;DHT22;5238;43.508;4.980;2023-12-07T09:10:38;7.90;91.30
10384;DHT22;5238;43.508;4.980;2023-12-07T09:13:05;7.90;91.30
10384;DHT22;5238;43.508;4.980;2023-12-07T09:15:32;7.90;91.30
10384;DHT22;5238;43.508;4.980;2023-12-07T09:18:00;7.90;91.30
10384;DHT22;5238;43.508;4.980;2023-12-07T09:20:29;7.90;91.30
10384;DHT22;5238;43.508;4.980;2023-12-07T09:22:56;7.90;91.30
10384;DHT22;5238;43.508;4.980;2023-12-07T09:25:23;8.00;91.30
10384;DHT22;5238;43.508;4.980;2023-12-07T09:27:53;8.10;91.30
10384;DHT22;5238;43.508;4.980;2023-12-07T09:30:20;8.10;91.30
10384;DHT22;5238;43.508;4.980;2023-12-07T09:32:47;8.10;91.30
10384;DHT22;5238;43.508;4.980;2023-12-07T09:35:14;8.20;91.30
10384;DHT22;5238;43.508;4.980;2023-12-07T09:37:46;8.40;91.30
10384;DHT22;5238;43.508;4.980;2023-12-07T09:40:16;8.60;91.30
10384;DHT22;5238;43.508;4.980;2023-12-07T09:42:44;8.70;91.30
10384;DHT22;5238;43.508;4.980;2023-12-07T09:45:11;8.80;91.30
10384;DHT22;5238;43.508;4.980;2023-12-07T09:47:40;8.90;91.30
10384;DHT22;5238;43.508;4.980;2023-12-07T09:50:08;9.10;91.30
10384;DHT22;5238;43.508;4.980;2023-12-07T09:52:35;9.30;91.30
10384;DHT22;5238;43.508;4.980;2023-12-07T09:55:05;9.50;91.30
10384;DHT22;5238;43.508;4.980;2023-12-07T09:57:32;9.60;91.30
10384;DHT22;5238;43.508;4.980;2023-12-07T09:59:59;9.70;91.30
10384;DHT22;5238;43.508;4.980;2023-12-07T10:02:26;9.90;91.30
10384;DHT22;5238;43.508;4.980;2023-12-07T10:05:03;10.00;91.30
10384;DHT22;5238;43.508;4.980;2023-12-07T10:07:32;10.20;91.30
10384;DHT22;5238;43.508;4.980;2023-12-07T10:10:00;10.30;91.30
10384;DHT22;5238;43.508;4.980;2023-12-07T10:12:30;10.50;91.30
10384;DHT22;5238;43.508;4.980;2023-12-07T10:14:59;10.60;91.30
10384;DHT22;5238;43.508;4.980;2023-12-07T10:17:43;10.70;91.30
10384;DHT22;5238;43.508;4.980;2023-12-07T10:20:12;10.80;91.30
10384;DHT22;5238;43.508;4.980;2023-12-07T10:22:40;10.90;91.30
10384;DHT22;5238;43.508;4.980;2023-12-07T10:25:07;10.90;91.30
10384;DHT22;5238;43.508;4.980;2023-12-07T10:27:38;10.90;91.30
10384;DHT22;5238;43.508;4.980;2023-12-07T10:30:11;11.00;91.30
10384;DHT22;5238;43.508;4.980;2023-12-07T10:32:38;11.10;91.30
10384;DHT22;5238;43.508;4.980;2023-12-07T10:35:09;11.30;91.30
10384;DHT22;5238;43.508;4.980;2023-12-07T10:37:36;11.50;91.30
10384;DHT22;5238;43.508;4.980;2023-12-07T10:40:05;11.60;91.30
10384;DHT22;5238;43.508;4.980;2023-12-07T10:42:33;11.70;91.30
10384;DHT22;5238;43.508;4.980;2023-12-07T10:45:07;11.90;91.30
10384;DHT22;5238;43.508;4.980;2023-12-07T10:47:36;12.00;91.30
10384;DHT22;5238;43.508;4.980;2023-12-07T10:50:06;12.10;91.30
10384;DHT22;5238;43.508;4.980;2023-12-07T10:52:37;12.20;91.30
10384;DHT22;5238;43.508;4.980;2023-12-07T10:55:08;12.30;91.30
10384;DHT22;5238;43.508;4.980;2023-12-07T10:57:36;12.30;91.30
10384;DHT22;5238;43.508;4.980;2023-12-07T11:00:07;12.30;91.30
10384;DHT22;5238;43.508;4.980;2023-12-07T11:02:35;12.40;91.30
10384;DHT22;5238;43.508;4.980;2023-12-07T11:05:03;12.50;91.30
10384;DHT22;5238;43.508;4.980;2023-12-07T11:07:38;12.60;91.30
10384;DHT22;5238;43.508;4.980;2023-12-07T11:10:13;12.70;91.30
10384;DHT22;5238;43.508;4.980;2023-12-07T11:12:47;12.80;91.30
10384;DHT22;5238;43.508;4.980;2023-12-07T11:15:17;12.90;91.30
10384;DHT22;5238;43.508;4.980;2023-12-07T11:17:50;12.90;91.30
10384;DHT22;5238;43.508;4.980;2023-12-07T11:20:19;12.90;91.30
10384;DHT22;5238;43.508;4.980;2023-12-07T11:22:47;13.00;91.30
10384;DHT22;5238;43.508;4.980;2023-12-07T11:25:15;13.00;91.30
10384;DHT22;5238;43.508;4.980;2023-12-07T11:27:44;13.00;91.30
10384;DHT22;5238;43.508;4.980;2023-12-07T11:30:14;13.00;91.30
10384;DHT22;5238;43.508;4.980;2023-12-07T11:32:43;13.00;91.30
10384;DHT22;5238;43.508;4.980;2023-12-07T11:35:14;13.10;91.30
10384;DHT22;5238;43.508;4.980;2023-12-07T11:38:04;13.10;91.30
10384;DHT22;5238;43.508;4.980;2023-12-07T11:40:34;13.10;91.30
10384;DHT22;5238;43.508;4.980;2023-12-07T11:43:02;13.10;91.30
10384;DHT22;5238;43.508;4.980;2023-12-07T11:45:38;13.10;91.30
10384;DHT22;5238;43.508;4.980;2023-12-07T11:48:16;13.20;91.30
10384;DHT22;5238;43.508;4.980;2023-12-07T11:50:54;13.20;91.30
10384;DHT22;5238;43.508;4.980;2023-12-07T11:53:23;13.20;91.30
10384;DHT22;5238;43.508;4.980;2023-12-07T11:55:50;13.20;91.30
10384;DHT22;5238;43.508;4.980;2023-12-07T11:58:17;13.20;91.30
10384;DHT22;5238;43.508;4.980;2023-12-07T12:00:45;13.30;91.30
10384;DHT22;5238;43.508;4.980;2023-12-07T12:03:14;13.30;91.30
10384;DHT22;5238;43.508;4.980;2023-12-07T12:05:42;13.30;91.30
10384;DHT22;5238;43.508;4.980;2023-12-07T12:08:09;13.30;91.30
10384;DHT22;5238;43.508;4.980;2023-12-07T12:10:37;13.30;91.30
10384;DHT22;5238;43.508;4.980;2023-12-07T12:13:04;13.30;91.30
10384;DHT22;5238;43.508;4.980;2023-12-07T12:15:31;13.20;91.30
10384;DHT22;5238;43.508;4.980;2023-12-07T12:18:00;13.10;91.30
10384;DHT22;5238;43.508;4.980;2023-12-07T12:20:30;13.10;91.30
10384;DHT22;5238;43.508;4.980;2023-12-07T12:22:57;13.20;91.30
10384;DHT22;5238;43.508;4.980;2023-12-07T12:25:25;13.20;91.30
10384;DHT22;5238;43.508;4.980;2023-12-07T12:27:54;13.20;91.30
10384;DHT22;5238;43.508;4.980;2023-12-07T12:30:22;13.10;91.30
10384;DHT22;5238;43.508;4.980;2023-12-07T12:32:50;13.10;91.30
10384;DHT22;5238;43.508;4.980;2023-12-07T12:35:17;13.10;91.30
10384;DHT22;5238;43.508;4.980;2023-12-07T12:37:47;13.10;91.30
10384;DHT22;5238;43.508;4.980;2023-12-07T12:40:15;13.10;91.30
10384;DHT22;5238;43.508;4.980;2023-12-07T12:42:45;13.10;91.30
10384;DHT22;5238;43.508;4.980;2023-12-07T12:45:13;13.10;91.30
10384;DHT22;5238;43.508;4.980;2023-12-07T12:47:40;13.10;91.30
10384;DHT22;5238;43.508;4.980;2023-12-07T12:50:09;13.10;91.30
10384;DHT22;5238;43.508;4.980;2023-12-07T12:52:36;13.20;91.30
10384;DHT22;5238;43.508;4.980;2023-12-07T12:55:08;13.20;91.30
10384;DHT22;5238;43.508;4.980;2023-12-07T12:57:37;13.20;91.30
10384;DHT22;5238;43.508;4.980;2023-12-07T13:00:05;13.20;91.30
10384;DHT22;5238;43.508;4.980;2023-12-07T13:02:33;13.20;91.30
10384;DHT22;5238;43.508;4.980;2023-12-07T13:05:00;13.20;91.30
10384;DHT22;5238;43.508;4.980;2023-12-07T13:07:28;13.20;91.30
10384;DHT22;5238;43.508;4.980;2023-12-07T13:09:55;13.20;91.30
10384;DHT22;5238;43.508;4.980;2023-12-07T13:12:23;13.10;91.30
10384;DHT22;5238;43.508;4.980;2023-12-07T13:14:53;13.10;91.30
10384;DHT22;5238;43.508;4.980;2023-12-07T13:17:20;13.00;91.30
10384;DHT22;5238;43.508;4.980;2023-12-07T13:19:47;13.00;91.30
10384;DHT22;5238;43.508;4.980;2023-12-07T13:22:14;12.90;91.30
10384;DHT22;5238;43.508;4.980;2023-12-07T13:24:41;12.80;91.30
10384;DHT22;5238;43.508;4.980;2023-12-07T13:27:08;12.70;91.30
10384;DHT22;5238;43.508;4.980;2023-12-07T13:29:36;12.70;91.30
10384;DHT22;5238;43.508;4.980;2023-12-07T13:32:04;12.60;91.30
10384;DHT22;5238;43.508;4.980;2023-12-07T13:34:31;12.60;91.30
10384;DHT22;5238;43.508;4.980;2023-12-07T13:36:58;12.50;91.30
10384;DHT22;5238;43.508;4.980;2023-12-07T13:39:25;12.50;91.30
10384;DHT22;5238;43.508;4.980;2023-12-07T13:41:54;12.40;91.30
10384;DHT22;5238;43.508;4.980;2023-12-07T13:44:21;12.40;91.30
10384;DHT22;5238;43.508;4.980;2023-12-07T13:46:51;12.30;91.30
10384;DHT22;5238;43.508;4.980;2023-12-07T13:49:19;12.30;91.30
10384;DHT22;5238;43.508;4.980;2023-12-07T13:51:47;12.20;91.30
10384;DHT22;5238;43.508;4.980;2023-12-07T13:54:14;12.20;91.30
10384;DHT22;5238;43.508;4.980;2023-12-07T13:56:41;12.20;91.30
10384;DHT22;5238;43.508;4.980;2023-12-07T13:59:08;12.10;91.30
10384;DHT22;5238;43.508;4.980;2023-12-07T14:01:37;12.10;91.30
10384;DHT22;5238;43.508;4.980;2023-12-07T14:04:06;12.10;91.30
10384;DHT22;5238;43.508;4.980;2023-12-07T14:06:34;12.00;91.30
10384;DHT22;5238;43.508;4.980;2023-12-07T14:09:01;12.00;91.30
10384;DHT22;5238;43.508;4.980;2023-12-07T14:11:28;11.90;91.30
10384;DHT22;5238;43.508;4.980;2023-12-07T14:13:55;11.90;91.30
10384;DHT22;5238;43.508;4.980;2023-12-07T14:16:22;11.90;91.30
10384;DHT22;5238;43.508;4.980;2023-12-07T14:18:50;11.80;91.30
10384;DHT22;5238;43.508;4.980;2023-12-07T14:21:20;11.80;91.30
10384;DHT22;5238;43.508;4.980;2023-12-07T14:23:48;11.80;91.30
10384;DHT22;5238;43.508;4.980;2023-12-07T14:26:15;11.80;91.30
10384;DHT22;5238;43.508;4.980;2023-12-07T14:28:42;11.80;91.30
10384;DHT22;5238;43.508;4.980;2023-12-07T14:31:09;11.70;91.30
10384;DHT22;5238;43.508;4.980;2023-12-07T14:33:42;11.70;91.30
10384;DHT22;5238;43.508;4.980;2023-12-07T14:36:10;11.70;91.30
10384;DHT22;5238;43.508;4.980;2023-12-07T14:38:39;11.70;91.30
10384;DHT22;5238;43.508;4.980;2023-12-07T14:41:07;11.70;91.30
10384;DHT22;5238;43.508;4.980;2023-12-07T14:43:34;11.70;91.30
10384;DHT22;5238;43.508;4.980;2023-12-07T14:46:01;11.80;91.30
10384;DHT22;5238;43.508;4.980;2023-12-07T14:48:29;11.80;91.30
10384;DHT22;5238;43.508;4.980;2023-12-07T14:50:56;11.80;91.30
10384;DHT22;5238;43.508;4.980;2023-12-07T14:53:22;11.80;91.30
10384;DHT22;5238;43.508;4.980;2023-12-07T14:55:52;11.80;91.30
10384;DHT22;5238;43.508;4.980;2023-12-07T14:58:19;11.90;91.30
10384;DHT22;5238;43.508;4.980;2023-12-07T15:00:46;11.90;91.30
10384;DHT22;5238;43.508;4.980;2023-12-07T15:03:13;11.90;91.30
10384;DHT22;5238;43.508;4.980;2023-12-07T15:05:41;11.90;91.30
10384;DHT22;5238;43.508;4.980;2023-12-07T15:08:08;12.00;91.30
10384;DHT22;5238;43.508;4.980;2023-12-07T15:10:36;12.00;91.30
10384;DHT22;5238;43.508;4.980;2023-12-07T15:13:05;12.00;91.30
10384;DHT22;5238;43.508;4.980;2023-12-07T15:15:32;12.00;91.30
10384;DHT22;5238;43.508;4.980;2023-12-07T15:17:59;12.00;91.30
10384;DHT22;5238;43.508;4.980;2023-12-07T15:20:26;12.00;91.30
10384;DHT22;5238;43.508;4.980;2023-12-07T15:22:53;12.00;91.30
10384;DHT22;5238;43.508;4.980;2023-12-07T15:25:19;12.00;91.30
10384;DHT22;5238;43.508;4.980;2023-12-07T15:27:48;12.00;91.30
10384;DHT22;5238;43.508;4.980;2023-12-07T15:30:17;11.90;91.30
10384;DHT22;5238;43.508;4.980;2023-12-07T15:32:44;11.90;91.30
10384;DHT22;5238;43.508;4.980;2023-12-07T15:35:11;11.90;91.30
10384;DHT22;5238;43.508;4.980;2023-12-07T15:37:37;11.80;91.30
10384;DHT22;5238;43.508;4.980;2023-12-07T15:40:05;11.80;91.30
10384;DHT22;5238;43.508;4.980;2023-12-07T15:42:35;11.80;91.30
10384;DHT22;5238;43.508;4.980;2023-12-07T15:45:03;11.80;91.30
10384;DHT22;5238;43.508;4.980;2023-12-07T15:47:32;11.70;91.30
10384;DHT22;5238;43.508;4.980;2023-12-07T15:49:59;11.70;91.30
10384;DHT22;5238;43.508;4.980;2023-12-07T15:52:26;11.70;91.30
10384;DHT22;5238;43.508;4.980;2023-12-07T15:54:53;11.70;91.30
10384;DHT22;5238;43.508;4.980;2023-12-07T15:57:20;11.60;91.30
10384;DHT22;5238;43.508;4.980;2023-12-07T15:59:47;11.60;91.30